createdAt,value
2022-09-29T00:00:31.864Z,7.60
2022-09-29T00:02:58.567Z,7.60
2022-09-29T00:05:25.298Z,7.50
2022-09-29T00:07:51.927Z,7.50
2022-09-29T00:10:18.604Z,7.50
2022-09-29T00:12:45.506Z,7.50
2022-09-29T00:15:12.207Z,7.40
2022-09-29T00:17:38.829Z,7.50
2022-09-29T00:20:06.244Z,7.40
2022-09-29T00:22:33.345Z,7.40
2022-09-29T00:24:59.979Z,7.40
2022-09-29T00:27:26.604Z,7.40
2022-09-29T00:29:53.233Z,7.40
2022-09-29T00:32:19.849Z,7.40
2022-09-29T00:34:46.569Z,7.30
2022-09-29T00:37:14.197Z,7.30
2022-09-29T00:39:40.839Z,7.20
2022-09-29T00:42:09.294Z,6.90
2022-09-29T00:44:54.219Z,6.90
2022-09-29T00:47:22.193Z,6.90
2022-09-29T00:50:01.574Z,6.80
2022-09-29T00:52:34.297Z,6.80
2022-09-29T00:55:16.909Z,6.80
2022-09-29T00:57:51.487Z,6.80
2022-09-29T01:00:18.235Z,6.80
2022-09-29T01:02:54.176Z,6.80
2022-09-29T01:05:27.726Z,6.80
2022-09-29T01:07:54.723Z,6.80
2022-09-29T01:10:22.255Z,6.80
2022-09-29T01:12:49.397Z,6.80
2022-09-29T01:15:19.427Z,6.70
2022-09-29T01:17:47.521Z,6.80
2022-09-29T01:20:20.626Z,6.80
2022-09-29T01:23:25.108Z,6.80
2022-09-29T01:26:19.545Z,6.70
2022-09-29T01:29:09.550Z,6.70
2022-09-29T01:31:47.454Z,6.70
2022-09-29T01:34:37.491Z,6.60
2022-09-29T01:37:04.086Z,6.60
2022-09-29T01:39:34.208Z,6.40
2022-09-29T01:42:08.199Z,6.30
2022-09-29T01:44:45.870Z,6.40
2022-09-29T01:47:23.690Z,6.40
2022-09-29T01:50:16.825Z,6.40
2022-09-29T01:52:48.147Z,6.50
2022-09-29T01:55:20.925Z,6.30
2022-09-29T01:57:52.263Z,6.20
2022-09-29T02:00:20.864Z,6.20
2022-09-29T02:03:06.648Z,6.20
2022-09-29T02:05:44.859Z,6.10
2022-09-29T02:08:16.409Z,6.10
2022-09-29T02:11:00.358Z,6.10
2022-09-29T02:13:29.941Z,6.10
2022-09-29T02:15:58.584Z,6.10
2022-09-29T02:18:34.917Z,6.00
2022-09-29T02:21:01.821Z,6.00
2022-09-29T02:23:28.625Z,6.00
2022-09-29T02:29:43.794Z,5.90
2022-09-29T02:32:10.542Z,5.90
2022-09-29T02:34:42.111Z,5.90
2022-09-29T02:37:30.897Z,6.00
2022-09-29T02:40:18.328Z,6.00
2022-09-29T02:43:24.051Z,6.00
2022-09-29T02:46:06.551Z,6.00
2022-09-29T02:48:39.320Z,6.00
2022-09-29T02:51:29.233Z,6.00
2022-09-29T02:54:13.586Z,6.00
2022-09-29T02:56:58.735Z,6.00
2022-09-29T02:59:33.070Z,5.80
2022-09-29T03:01:59.664Z,5.70
2022-09-29T03:04:27.446Z,5.70
2022-09-29T03:06:54.817Z,5.80
2022-09-29T03:09:21.789Z,5.80
2022-09-29T03:11:48.402Z,5.70
2022-09-29T03:14:15.154Z,5.70
2022-09-29T03:16:42.931Z,5.80
2022-09-29T03:19:09.616Z,5.70
2022-09-29T03:21:36.231Z,5.60
2022-09-29T03:24:02.930Z,5.60
2022-09-29T03:26:30.158Z,5.50
2022-09-29T03:28:56.828Z,5.60
2022-09-29T03:31:23.546Z,5.70
2022-09-29T03:33:50.355Z,5.70
2022-09-29T03:36:16.947Z,5.80
2022-09-29T03:38:45.494Z,5.70
2022-09-29T03:41:12.185Z,5.80
2022-09-29T03:43:38.851Z,5.70
2022-09-29T03:46:05.895Z,5.60
2022-09-29T03:48:34.989Z,5.60
2022-09-29T03:51:01.671Z,5.60
2022-09-29T03:53:28.277Z,5.60
2022-09-29T03:55:54.950Z,5.60
2022-09-29T03:58:21.622Z,5.50
2022-09-29T04:00:49.952Z,5.50
2022-09-29T04:03:16.721Z,5.60
2022-09-29T04:05:46.267Z,5.60
2022-09-29T04:08:13.472Z,5.60
2022-09-29T04:10:40.899Z,5.60
2022-09-29T04:13:08.732Z,5.40
2022-09-29T04:15:35.775Z,5.50
2022-09-29T04:18:02.429Z,5.50
2022-09-29T04:20:29.031Z,5.50
2022-09-29T04:22:55.642Z,5.40
2022-09-29T04:25:22.279Z,5.40
2022-09-29T04:27:48.911Z,5.40
2022-09-29T04:30:16.059Z,5.40
2022-09-29T04:32:42.933Z,5.40
2022-09-29T04:35:09.912Z,5.30
2022-09-29T04:37:36.547Z,5.30
2022-09-29T04:40:04.976Z,5.20
2022-09-29T04:42:31.583Z,5.10
2022-09-29T04:44:58.415Z,5.20
2022-09-29T04:47:25.102Z,5.20
2022-09-29T04:49:51.700Z,5.20
2022-09-29T04:52:18.418Z,5.20
2022-09-29T04:54:44.990Z,5.20
2022-09-29T04:57:12.931Z,5.10
2022-09-29T04:59:39.521Z,5.10
2022-09-29T05:02:06.263Z,5.10
2022-09-29T05:04:32.995Z,5.10
2022-09-29T05:06:59.635Z,5.10
2022-09-29T05:09:29.913Z,5.10
2022-09-29T05:11:59.155Z,5.10
2022-09-29T05:14:25.741Z,5.10
2022-09-29T05:16:55.186Z,5.00
2022-09-29T05:19:21.963Z,5.10
2022-09-29T05:21:48.620Z,5.10
2022-09-29T05:24:15.242Z,5.10
2022-09-29T05:26:41.926Z,5.10
2022-09-29T05:29:08.658Z,5.10
2022-09-29T05:31:35.286Z,5.10
2022-09-29T05:34:01.946Z,4.90
2022-09-29T05:36:28.601Z,4.90
2022-09-29T05:38:56.146Z,4.80
2022-09-29T05:41:23.363Z,4.60
2022-09-29T05:43:51.010Z,4.70
2022-09-29T05:46:18.571Z,4.60
2022-09-29T05:48:48.865Z,4.60
2022-09-29T05:51:22.809Z,4.60
2022-09-29T05:53:50.608Z,4.60
2022-09-29T05:56:19.901Z,4.50
2022-09-29T05:58:46.660Z,4.50
2022-09-29T06:01:16.416Z,4.50
2022-09-29T06:03:43.441Z,4.60
2022-09-29T06:06:16.021Z,4.60
2022-09-29T06:08:43.825Z,4.60
2022-09-29T06:11:20.288Z,4.50
2022-09-29T06:13:49.039Z,4.50
2022-09-29T06:16:17.352Z,4.50
2022-09-29T06:18:44.053Z,4.50
2022-09-29T06:21:12.838Z,4.60
2022-09-29T06:23:39.859Z,4.70
2022-09-29T06:26:22.731Z,4.60
2022-09-29T06:28:50.482Z,4.70
2022-09-29T06:31:19.363Z,4.70
2022-09-29T06:33:46.468Z,4.70
2022-09-29T06:36:41.746Z,4.90
2022-09-29T06:39:10.483Z,5.00
2022-09-29T06:41:37.157Z,5.10
2022-09-29T06:44:03.993Z,5.00
2022-09-29T06:46:31.107Z,5.10
2022-09-29T06:48:57.713Z,5.10
2022-09-29T06:51:34.442Z,5.30
2022-09-29T06:54:11.707Z,5.50
2022-09-29T06:56:40.765Z,5.60
2022-09-29T06:59:08.411Z,5.50
2022-09-29T07:01:35.300Z,5.70
2022-09-29T07:04:02.348Z,5.80
2022-09-29T07:06:31.983Z,5.80
2022-09-29T07:08:59.471Z,5.70
2022-09-29T07:11:27.145Z,5.70
2022-09-29T07:13:55.108Z,5.70
2022-09-29T07:16:26.007Z,5.80
2022-09-29T07:18:53.117Z,6.10
2022-09-29T07:21:22.116Z,6.30
2022-09-29T07:23:49.484Z,6.60
2022-09-29T07:26:17.209Z,7.10
2022-09-29T07:28:45.567Z,7.40
2022-09-29T07:31:18.675Z,7.60
2022-09-29T07:33:47.073Z,7.70
2022-09-29T07:36:15.607Z,7.90
2022-09-29T07:38:42.456Z,8.00
2022-09-29T07:41:11.508Z,8.00
2022-09-29T07:43:39.234Z,7.90
2022-09-29T07:46:06.940Z,7.60
2022-09-29T07:48:34.904Z,7.50
2022-09-29T07:51:06.718Z,7.50
2022-09-29T07:53:34.485Z,7.60
2022-09-29T07:56:10.142Z,7.70
2022-09-29T07:58:37.664Z,7.80
2022-09-29T08:01:10.256Z,7.50
2022-09-29T08:03:38.989Z,7.60
2022-09-29T08:06:06.612Z,7.60
2022-09-29T08:08:36.784Z,8.10
2022-09-29T08:11:22.002Z,8.70
2022-09-29T08:13:56.323Z,8.90
2022-09-29T08:16:23.546Z,9.30
2022-09-29T08:18:50.372Z,9.80
2022-09-29T08:21:17.136Z,10.50
2022-09-29T08:23:44.294Z,10.90
2022-09-29T08:26:16.530Z,11.40
2022-09-29T08:28:44.247Z,11.60
2022-09-29T08:31:14.942Z,11.90
2022-09-29T08:33:41.746Z,11.90
2022-09-29T08:36:14.535Z,12.20
2022-09-29T08:38:46.471Z,12.60
2022-09-29T08:41:34.024Z,12.70
2022-09-29T08:44:38.871Z,12.90
2022-09-29T08:47:18.366Z,12.80
2022-09-29T08:50:03.133Z,14.30
2022-09-29T08:52:45.468Z,15.60
2022-09-29T08:55:21.872Z,16.50
2022-09-29T08:57:55.252Z,17.30
2022-09-29T09:00:40.582Z,17.70
2022-09-29T09:03:33.081Z,18.40
2022-09-29T09:06:21.086Z,18.80
2022-09-29T09:09:20.130Z,19.90
2022-09-29T09:12:20.317Z,20.00
2022-09-29T09:15:19.033Z,20.70
2022-09-29T09:17:54.528Z,21.20
2022-09-29T09:20:21.083Z,21.60
2022-09-29T09:22:57.779Z,21.00
2022-09-29T09:25:30.607Z,20.10
2022-09-29T09:28:05.622Z,19.70
2022-09-29T09:30:48.582Z,19.70
2022-09-29T09:34:02.906Z,20.30
2022-09-29T09:36:36.838Z,20.70
2022-09-29T09:39:37.860Z,21.20
2022-09-29T09:42:15.108Z,21.90
2022-09-29T09:45:10.759Z,21.90
2022-09-29T09:47:42.533Z,22.20
2022-09-29T09:50:15.297Z,20.80
2022-09-29T09:52:56.577Z,21.20
2022-09-29T09:55:25.632Z,21.20
2022-09-29T09:58:10.760Z,21.90
2022-09-29T10:00:48.462Z,21.60
2022-09-29T10:03:16.474Z,22.00
2022-09-29T10:05:45.517Z,21.60
2022-09-29T10:08:15.235Z,21.60
2022-09-29T10:10:56.542Z,22.60
2022-09-29T10:13:27.707Z,23.70
2022-09-29T10:16:17.510Z,23.40
2022-09-29T10:18:47.163Z,24.30
2022-09-29T10:21:26.109Z,24.30
2022-09-29T10:23:55.044Z,23.70
2022-09-29T10:26:26.492Z,23.10
2022-09-29T10:28:54.889Z,23.30
2022-09-29T10:31:27.513Z,24.20
2022-09-29T10:33:58.404Z,24.10
2022-09-29T10:36:32.529Z,23.10
2022-09-29T10:39:03.327Z,23.00
2022-09-29T10:41:49.909Z,21.70
2022-09-29T10:44:21.886Z,19.90
2022-09-29T10:46:56.234Z,20.20
2022-09-29T10:49:28.190Z,20.70
2022-09-29T10:52:07.362Z,22.50
2022-09-29T10:54:53.086Z,23.70
2022-09-29T10:57:25.847Z,24.10
2022-09-29T10:59:54.262Z,24.40
2022-09-29T11:02:33.041Z,24.20
2022-09-29T11:05:14.998Z,24.70
2022-09-29T11:07:46.907Z,24.90
2022-09-29T11:10:35.356Z,25.50
2022-09-29T11:13:22.189Z,25.50
2022-09-29T11:15:49.704Z,26.60
2022-09-29T11:18:25.547Z,26.10
2022-09-29T11:21:14.222Z,26.20
2022-09-29T11:23:48.264Z,23.70
2022-09-29T11:26:43.951Z,21.10
2022-09-29T11:29:17.581Z,20.70
2022-09-29T11:32:14.957Z,22.30
2022-09-29T11:35:00.229Z,23.50
2022-09-29T11:37:39.917Z,22.20
2022-09-29T11:40:29.917Z,20.60
2022-09-29T11:43:11.749Z,20.80
2022-09-29T11:46:20.267Z,22.40
2022-09-29T11:49:24.478Z,24.20
2022-09-29T11:52:28.052Z,24.60
2022-09-29T11:55:06.266Z,25.10
2022-09-29T11:57:51.241Z,25.40
2022-09-29T12:00:27.636Z,25.80
2022-09-29T12:03:14.220Z,25.30
2022-09-29T12:06:04.981Z,22.80
2022-09-29T12:09:02.951Z,21.60
2022-09-29T12:12:18.875Z,21.90
2022-09-29T12:15:02.708Z,20.80
2022-09-29T12:17:33.712Z,19.40
2022-09-29T12:20:24.568Z,18.90
2022-09-29T12:22:54.492Z,18.00
2022-09-29T12:25:27.438Z,17.20
2022-09-29T12:28:00.944Z,16.50
2022-09-29T12:30:30.503Z,16.20
2022-09-29T12:33:12.386Z,16.10
2022-09-29T12:35:52.310Z,15.90
2022-09-29T12:38:40.261Z,16.00
2022-09-29T12:41:26.897Z,16.00
2022-09-29T12:44:02.427Z,16.20
2022-09-29T12:46:48.947Z,16.40
2022-09-29T12:50:00.001Z,16.50
2022-09-29T12:52:34.189Z,16.70
2022-09-29T12:55:05.592Z,16.60
2022-09-29T12:57:38.383Z,16.60
2022-09-29T13:00:12.792Z,16.60
2022-09-29T13:03:04.241Z,16.30
2022-09-29T13:06:08.681Z,16.10
2022-09-29T13:09:16.036Z,16.00
2022-09-29T13:11:57.517Z,15.80
2022-09-29T13:14:46.122Z,15.80
2022-09-29T13:20:21.850Z,15.70
2022-09-29T13:23:11.526Z,15.60
2022-09-29T13:25:54.482Z,15.30
2022-09-29T13:28:31.309Z,15.50
2022-09-29T13:31:04.371Z,15.50
2022-09-29T13:33:31.853Z,15.70
2022-09-29T13:35:59.429Z,15.70
2022-09-29T13:38:36.846Z,15.50
2022-09-29T13:41:35.122Z,15.60
2022-09-29T13:44:02.849Z,15.50
2022-09-29T13:46:32.524Z,15.30
2022-09-29T13:49:04.130Z,15.40
2022-09-29T13:51:47.789Z,15.40
2022-09-29T13:54:23.856Z,15.20
2022-09-29T13:57:07.657Z,15.20
2022-09-29T13:59:35.670Z,15.00
2022-09-29T14:02:17.706Z,15.20
2022-09-29T14:04:50.508Z,15.50
2022-09-29T14:07:43.176Z,15.80
2022-09-29T14:10:35.232Z,16.30
2022-09-29T14:13:08.533Z,16.60
2022-09-29T14:15:40.446Z,17.00
2022-09-29T14:18:33.381Z,17.00
2022-09-29T14:21:03.535Z,17.10
2022-09-29T14:23:49.234Z,16.80
2022-09-29T14:26:54.388Z,16.70
2022-09-29T14:29:29.856Z,16.40
2022-09-29T14:31:58.959Z,16.10
2022-09-29T14:34:29.461Z,15.90
2022-09-29T14:36:58.253Z,15.60
2022-09-29T14:39:27.158Z,15.10
2022-09-29T14:41:54.082Z,14.90
2022-09-29T14:44:54.270Z,14.80
2022-09-29T14:47:49.506Z,14.70
2022-09-29T14:50:45.969Z,14.60
2022-09-29T14:53:41.764Z,14.60
2022-09-29T14:56:21.696Z,14.70
2022-09-29T14:59:00.403Z,14.70
2022-09-29T15:01:32.707Z,14.90
2022-09-29T15:04:07.395Z,15.00
2022-09-29T15:06:34.858Z,15.20
2022-09-29T15:09:13.358Z,15.30
2022-09-29T15:11:46.541Z,15.20
2022-09-29T15:14:31.470Z,15.30
2022-09-29T15:17:21.077Z,15.00
2022-09-29T15:20:12.409Z,14.90
2022-09-29T15:22:54.317Z,14.90
2022-09-29T15:25:29.647Z,14.80
2022-09-29T15:28:19.223Z,14.70
2022-09-29T15:30:49.114Z,14.50
2022-09-29T15:33:27.521Z,14.30
2022-09-29T15:36:04.722Z,14.20
2022-09-29T15:38:36.326Z,13.90
2022-09-29T15:41:29.092Z,13.70
2022-09-29T15:43:59.238Z,13.60
2022-09-29T15:46:35.409Z,13.40
2022-09-29T15:49:16.246Z,13.30
2022-09-29T15:51:47.238Z,13.00
2022-09-29T15:54:15.084Z,12.90
2022-09-29T15:57:00.916Z,12.80
2022-09-29T15:59:43.219Z,12.90
2022-09-29T16:02:41.478Z,12.80
2022-09-29T16:05:15.562Z,12.80
2022-09-29T16:07:49.179Z,12.50
2022-09-29T16:10:20.286Z,12.40
2022-09-29T16:13:05.527Z,12.40
2022-09-29T16:15:42.653Z,12.30
2022-09-29T16:18:16.234Z,12.30
2022-09-29T16:20:45.112Z,12.20
2022-09-29T16:23:26.898Z,12.20
2022-09-29T16:26:31.760Z,12.20
2022-09-29T16:29:00.716Z,12.10
2022-09-29T16:31:29.168Z,12.00
2022-09-29T16:34:00.606Z,11.90
2022-09-29T16:36:33.690Z,11.80
2022-09-29T16:39:01.231Z,11.80
2022-09-29T16:41:37.758Z,11.70
2022-09-29T16:44:17.633Z,11.70
2022-09-29T16:46:53.733Z,11.60
2022-09-29T16:49:27.578Z,11.50
2022-09-29T16:51:57.440Z,11.40
2022-09-29T16:54:31.977Z,11.30
2022-09-29T16:57:21.354Z,11.10
2022-09-29T16:59:51.754Z,10.90
2022-09-29T17:02:18.562Z,10.80
2022-09-29T17:04:45.366Z,10.80
2022-09-29T17:07:17.414Z,10.70
2022-09-29T17:09:55.791Z,10.60
2022-09-29T17:12:23.338Z,10.60
2022-09-29T17:14:50.254Z,10.50
2022-09-29T17:17:25.636Z,10.40
2022-09-29T17:19:56.234Z,10.40
2022-09-29T17:22:31.052Z,10.20
2022-09-29T17:24:59.152Z,10.10
2022-09-29T17:27:45.912Z,10.00
2022-09-29T17:30:17.704Z,9.90
2022-09-29T17:32:46.803Z,9.70
2022-09-29T17:35:19.087Z,9.60
2022-09-29T17:37:49.899Z,9.60
2022-09-29T17:40:19.144Z,9.50
2022-09-29T17:42:47.325Z,9.30
2022-09-29T17:45:19.306Z,9.20
2022-09-29T17:47:47.726Z,9.00
2022-09-29T17:50:23.126Z,8.80
2022-09-29T17:52:49.813Z,8.80
2022-09-29T17:55:16.585Z,8.80
2022-09-29T17:57:43.431Z,8.70
2022-09-29T18:00:19.209Z,8.70
2022-09-29T18:02:46.105Z,8.60
2022-09-29T18:05:13.843Z,8.30
2022-09-29T18:07:41.600Z,8.30
2022-09-29T18:10:34.284Z,8.30
2022-09-29T18:13:01.244Z,8.30
2022-09-29T18:15:28.345Z,8.30
2022-09-29T18:17:59.827Z,8.30
2022-09-29T18:20:29.726Z,8.30
2022-09-29T18:22:59.009Z,8.20
2022-09-29T18:25:26.931Z,8.20
2022-09-29T18:27:54.524Z,8.20
2022-09-29T18:30:39.548Z,8.20
2022-09-29T18:33:12.653Z,8.10
2022-09-29T18:35:42.429Z,8.00
2022-09-29T18:38:09.680Z,7.90
2022-09-29T18:40:38.233Z,7.80
2022-09-29T18:43:06.391Z,7.80
2022-09-29T18:45:37.348Z,7.80
2022-09-29T18:48:06.244Z,7.70
2022-09-29T18:50:36.478Z,7.60
2022-09-29T18:53:03.247Z,7.50
2022-09-29T18:55:31.598Z,7.40
2022-09-29T18:57:59.545Z,7.40
2022-09-29T19:00:31.813Z,7.40
2022-09-29T19:03:04.893Z,7.40
2022-09-29T19:05:33.781Z,7.30
2022-09-29T19:08:03.435Z,7.20
2022-09-29T19:10:33.491Z,7.20
2022-09-29T19:13:04.246Z,7.20
2022-09-29T19:15:34.676Z,7.00
2022-09-29T19:18:02.858Z,7.00
2022-09-29T19:20:29.970Z,6.90
2022-09-29T19:22:58.634Z,6.90
2022-09-29T19:25:28.932Z,6.90
2022-09-29T19:27:56.875Z,6.80
2022-09-29T19:30:25.772Z,6.80
2022-09-29T19:32:53.560Z,6.80
2022-09-29T19:35:23.542Z,6.80
2022-09-29T19:37:51.511Z,6.80
2022-09-29T19:40:22.533Z,6.80
2022-09-29T19:42:49.402Z,6.70
2022-09-29T19:45:17.278Z,6.70
2022-09-29T19:47:45.297Z,6.70
2022-09-29T19:50:30.626Z,6.70
2022-09-29T19:52:57.399Z,6.70
2022-09-29T19:55:24.382Z,6.60
2022-09-29T19:57:51.029Z,6.50
2022-09-29T20:00:20.910Z,6.40
2022-09-29T20:02:48.396Z,6.40
2022-09-29T20:05:15.672Z,6.30
2022-09-29T20:07:46.632Z,6.10
2022-09-29T20:10:16.444Z,6.10
2022-09-29T20:12:43.264Z,6.10
2022-09-29T20:15:11.856Z,6.20
2022-09-29T20:17:42.035Z,6.20
2022-09-29T20:20:11.709Z,6.30
2022-09-29T20:22:38.750Z,6.30
2022-09-29T20:25:07.903Z,6.30
2022-09-29T20:27:35.805Z,6.30
2022-09-29T20:30:05.187Z,6.30
2022-09-29T20:32:33.559Z,6.30
2022-09-29T20:35:00.595Z,6.30
2022-09-29T20:37:28.937Z,6.40
2022-09-29T20:39:55.758Z,6.40
2022-09-29T20:42:22.445Z,6.30
2022-09-29T20:44:55.005Z,6.40
2022-09-29T20:47:24.845Z,6.40
2022-09-29T20:49:51.761Z,6.40
2022-09-29T20:52:18.434Z,6.30
2022-09-29T20:54:47.522Z,6.40
2022-09-29T20:57:16.562Z,6.40
2022-09-29T20:59:43.882Z,6.40
2022-09-29T21:02:11.801Z,6.30
2022-09-29T21:04:38.647Z,6.30
2022-09-29T21:07:25.261Z,6.20
2022-09-29T21:09:52.635Z,6.30
2022-09-29T21:12:19.411Z,6.30
2022-09-29T21:14:46.161Z,6.20
2022-09-29T21:17:12.779Z,6.00
2022-09-29T21:19:39.546Z,5.80
2022-09-29T21:22:06.317Z,5.90
2022-09-29T21:24:34.653Z,6.00
2022-09-29T21:27:01.461Z,5.90
2022-09-29T21:29:28.542Z,6.00
2022-09-29T21:31:55.451Z,6.00
2022-09-29T21:34:22.289Z,5.80
2022-09-29T21:36:50.280Z,5.70
2022-09-29T21:39:17.100Z,5.60
2022-09-29T21:41:44.616Z,5.70
2022-09-29T21:44:15.315Z,5.70
2022-09-29T21:46:43.502Z,5.80
2022-09-29T21:49:12.479Z,5.80
2022-09-29T21:51:41.850Z,5.70
2022-09-29T21:54:13.612Z,5.60
2022-09-29T21:56:41.699Z,5.50
2022-09-29T21:59:09.924Z,5.40
2022-09-29T22:01:39.779Z,5.40
2022-09-29T22:04:07.137Z,5.50
2022-09-29T22:06:35.561Z,5.60
2022-09-29T22:09:02.780Z,5.70
2022-09-29T22:11:32.611Z,5.80
2022-09-29T22:14:01.055Z,5.80
2022-09-29T22:16:31.227Z,5.80
2022-09-29T22:19:22.027Z,5.80
2022-09-29T22:21:46.789Z,5.80
2022-09-29T22:24:13.636Z,5.80
2022-09-29T22:26:41.083Z,5.80
2022-09-29T22:29:07.969Z,5.80
2022-09-29T22:31:35.441Z,5.70
2022-09-29T22:34:05.000Z,5.70
2022-09-29T22:36:33.661Z,5.70
2022-09-29T22:39:01.734Z,5.50
2022-09-29T22:41:29.084Z,5.40
2022-09-29T22:43:57.382Z,5.50
2022-09-29T22:46:25.790Z,5.40
2022-09-29T22:48:52.844Z,5.20
2022-09-29T22:51:21.335Z,5.20
2022-09-29T22:53:48.215Z,5.20
2022-09-29T22:56:18.642Z,5.30
2022-09-29T22:58:45.509Z,5.20
2022-09-29T23:01:15.409Z,5.20
2022-09-29T23:03:44.023Z,5.10
2022-09-29T23:06:10.877Z,5.10
2022-09-29T23:08:38.144Z,5.00
2022-09-29T23:11:06.475Z,5.00
2022-09-29T23:13:36.671Z,5.10
2022-09-29T23:16:11.966Z,5.10
2022-09-29T23:18:44.201Z,5.20
2022-09-29T23:21:20.460Z,5.10
2022-09-29T23:23:51.494Z,5.10
2022-09-29T23:26:18.194Z,5.10
2022-09-29T23:28:45.002Z,5.10
2022-09-29T23:31:12.192Z,5.10
2022-09-29T23:33:39.047Z,5.10
2022-09-29T23:36:11.621Z,5.10
2022-09-29T23:38:58.836Z,5.20
2022-09-29T23:41:27.278Z,5.20
2022-09-29T23:43:59.518Z,5.20
2022-09-29T23:46:30.973Z,5.20
2022-09-29T23:49:02.244Z,5.20
2022-09-29T23:51:32.321Z,5.20
2022-09-29T23:54:00.085Z,5.10
2022-09-29T23:56:27.074Z,5.00
2022-09-29T23:58:53.693Z,5.10
